sensor_id;sensor_type;location;lat;lon;timestamp;pressure;altitude;pressure_sealevel;temperature;humidity
16595;BME280;8410;52.532;13.336;2022-09-12T00:01:21;101283.56;;;18.25;81.29
16595;BME280;8410;52.532;13.336;2022-09-12T00:03:51;101281.78;;;18.34;81.37
16595;BME280;8410;52.532;13.336;2022-09-12T00:06:24;101281.78;;;18.30;80.96
16595;BME280;8410;52.532;13.336;2022-09-12T00:08:55;101285.41;;;18.17;81.99
16595;BME280;8410;52.532;13.336;2022-09-12T00:11:25;101280.31;;;18.06;81.83
16595;BME280;8410;52.532;13.336;2022-09-12T00:13:58;101280.44;;;17.93;82.56
16595;BME280;8410;52.532;13.336;2022-09-12T00:16:30;101275.94;;;18.10;81.73
16595;BME280;8410;52.532;13.336;2022-09-12T00:18:59;101281.16;;;18.08;80.87
16595;BME280;8410;52.532;13.336;2022-09-12T00:21:28;101283.66;;;18.19;80.55
16595;BME280;8410;52.532;13.336;2022-09-12T00:23:56;101282.16;;;17.97;82.16
16595;BME280;8410;52.532;13.336;2022-09-12T00:26:24;101278.97;;;17.58;82.68
16595;BME280;8410;52.532;13.336;2022-09-12T00:28:52;101275.44;;;17.65;83.81
16595;BME280;8410;52.532;13.336;2022-09-12T00:31:24;101280.53;;;17.77;82.63
16595;BME280;8410;52.532;13.336;2022-09-12T00:33:56;101276.22;;;17.75;81.99
16595;BME280;8410;52.532;13.336;2022-09-12T00:36:26;101271.91;;;17.75;82.81
16595;BME280;8410;52.532;13.336;2022-09-12T00:38:54;101279.69;;;17.80;83.03
16595;BME280;8410;52.532;13.336;2022-09-12T00:41:26;101281.31;;;17.90;81.68
16595;BME280;8410;52.532;13.336;2022-09-12T00:43:57;101284.00;;;17.82;83.01
16595;BME280;8410;52.532;13.336;2022-09-12T00:46:33;101277.88;;;17.88;82.30
16595;BME280;8410;52.532;13.336;2022-09-12T00:49:08;101277.94;;;17.83;82.40
16595;BME280;8410;52.532;13.336;2022-09-12T00:51:40;101277.19;;;17.63;82.99
16595;BME280;8410;52.532;13.336;2022-09-12T00:54:16;101278.81;;;17.75;82.70
16595;BME280;8410;52.532;13.336;2022-09-12T00:56:47;101271.91;;;17.75;82.66
16595;BME280;8410;52.532;13.336;2022-09-12T00:59:21;101275.34;;;17.80;82.37
16595;BME280;8410;52.532;13.336;2022-09-12T01:01:53;101273.66;;;17.70;82.21
16595;BME280;8410;52.532;13.336;2022-09-12T01:04:26;101278.91;;;17.67;82.10
16595;BME280;8410;52.532;13.336;2022-09-12T01:06:57;101278.91;;;17.67;82.69
16595;BME280;8410;52.532;13.336;2022-09-12T01:09:25;101277.13;;;17.72;81.61
16595;BME280;8410;52.532;13.336;2022-09-12T01:11:54;101279.81;;;17.60;82.64
16595;BME280;8410;52.532;13.336;2022-09-12T01:14:22;101275.47;;;17.62;83.01
16595;BME280;8410;52.532;13.336;2022-09-12T01:16:52;101270.34;;;17.54;82.43
16595;BME280;8410;52.532;13.336;2022-09-12T01:19:55;101265.94;;;17.62;82.20
16595;BME280;8410;52.532;13.336;2022-09-12T01:23:03;101275.50;;;17.59;81.67
16595;BME280;8410;52.532;13.336;2022-09-12T01:25:54;101278.19;;;17.48;82.78
16595;BME280;8410;52.532;13.336;2022-09-12T01:28:50;101280.75;;;17.53;82.49
16595;BME280;8410;52.532;13.336;2022-09-12T01:31:29;101283.41;;;17.47;82.12
16595;BME280;8410;52.532;13.336;2022-09-12T01:34:15;101286.88;;;17.46;83.06
16595;BME280;8410;52.532;13.336;2022-09-12T01:36:56;101279.19;;;17.30;83.04
16595;BME280;8410;52.532;13.336;2022-09-12T01:39:38;101280.88;;;17.34;83.85
16595;BME280;8410;52.532;13.336;2022-09-12T01:42:17;101280.94;;;17.25;83.26
16595;BME280;8410;52.532;13.336;2022-09-12T01:44:56;101279.22;;;17.24;84.01
16595;BME280;8410;52.532;13.336;2022-09-12T01:47:38;101272.34;;;17.14;84.70
16595;BME280;8410;52.532;13.336;2022-09-12T01:50:13;101272.47;;;16.95;84.75
16595;BME280;8410;52.532;13.336;2022-09-12T01:52:51;101267.19;;;17.11;83.98
16595;BME280;8410;52.532;13.336;2022-09-12T01:55:26;101261.91;;;17.17;84.09
16595;BME280;8410;52.532;13.336;2022-09-12T01:58:02;101263.56;;;17.30;83.84
16595;BME280;8410;52.532;13.336;2022-09-12T02:00:33;101264.50;;;17.18;84.31
16595;BME280;8410;52.532;13.336;2022-09-12T02:03:09;101269.75;;;17.14;83.97
16595;BME280;8410;52.532;13.336;2022-09-12T02:05:46;101272.31;;;17.17;84.14
16595;BME280;8410;52.532;13.336;2022-09-12T02:08:21;101274.03;;;17.18;83.22
16595;BME280;8410;52.532;13.336;2022-09-12T02:10:56;101271.47;;;17.16;84.17
16595;BME280;8410;52.532;13.336;2022-09-12T02:13:33;101272.38;;;17.08;84.26
16595;BME280;8410;52.532;13.336;2022-09-12T02:16:07;101272.38;;;17.05;84.83
16595;BME280;8410;52.532;13.336;2022-09-12T02:18:43;101277.56;;;17.08;84.13
16595;BME280;8410;52.532;13.336;2022-09-12T02:21:11;101271.47;;;17.15;83.92
16595;BME280;8410;52.532;13.336;2022-09-12T02:23:47;101281.00;;;17.13;83.96
16595;BME280;8410;52.532;13.336;2022-09-12T02:26:21;101270.59;;;17.13;84.38
16595;BME280;8410;52.532;13.336;2022-09-12T02:28:51;101275.84;;;17.07;84.35
16595;BME280;8410;52.532;13.336;2022-09-12T02:31:26;101272.38;;;17.11;84.66
16595;BME280;8410;52.532;13.336;2022-09-12T02:34:09;101269.03;;;16.86;85.52
16595;BME280;8410;52.532;13.336;2022-09-12T02:36:48;101269.84;;;16.94;84.40
16595;BME280;8410;52.532;13.336;2022-09-12T02:39:19;101266.38;;;16.93;84.27
16595;BME280;8410;52.532;13.336;2022-09-12T02:41:49;101268.06;;;17.02;84.35
16595;BME280;8410;52.532;13.336;2022-09-12T02:44:19;101279.34;;;17.00;84.01
16595;BME280;8410;52.532;13.336;2022-09-12T02:46:51;101269.94;;;16.71;87.09
16595;BME280;8410;52.532;13.336;2022-09-12T02:49:22;101269.03;;;16.81;85.68
16595;BME280;8410;52.532;13.336;2022-09-12T02:51:50;101268.13;;;16.96;84.94
16595;BME280;8410;52.532;13.336;2022-09-12T02:54:20;101269.03;;;16.87;84.73
16595;BME280;8410;52.532;13.336;2022-09-12T02:56:47;101271.59;;;16.92;84.32
16595;BME280;8410;52.532;13.336;2022-09-12T02:59:18;101267.34;;;16.77;85.51
16595;BME280;8410;52.532;13.336;2022-09-12T03:02:19;101266.41;;;16.90;85.51
16595;BME280;8410;52.532;13.336;2022-09-12T03:05:15;101274.19;;;16.93;84.17
16595;BME280;8410;52.532;13.336;2022-09-12T03:08:12;101279.38;;;16.92;84.66
16595;BME280;8410;52.532;13.336;2022-09-12T03:11:06;101275.97;;;16.85;83.66
16595;BME280;8410;52.532;13.336;2022-09-12T03:13:50;101269.88;;;16.91;84.44
16595;BME280;8410;52.532;13.336;2022-09-12T03:16:31;101271.66;;;16.83;84.42
16595;BME280;8410;52.532;13.336;2022-09-12T03:19:09;101272.50;;;16.83;84.42
16595;BME280;8410;52.532;13.336;2022-09-12T03:21:53;101273.38;;;16.81;83.42
16595;BME280;8410;52.532;13.336;2022-09-12T03:24:31;101269.94;;;16.80;84.22
16595;BME280;8410;52.532;13.336;2022-09-12T03:27:08;101271.63;;;16.81;83.99
16595;BME280;8410;52.532;13.336;2022-09-12T03:29:39;101276.03;;;16.65;84.83
16595;BME280;8410;52.532;13.336;2022-09-12T03:32:08;101272.50;;;16.83;84.05
16595;BME280;8410;52.532;13.336;2022-09-12T03:34:35;101269.06;;;16.72;84.41
16595;BME280;8410;52.532;13.336;2022-09-12T03:37:05;101276.06;;;16.61;83.69
16595;BME280;8410;52.532;13.336;2022-09-12T03:39:33;101279.53;;;16.53;84.67
16595;BME280;8410;52.532;13.336;2022-09-12T03:42:00;101277.81;;;16.43;84.39
16595;BME280;8410;52.532;13.336;2022-09-12T03:44:28;101267.44;;;16.40;84.67
16595;BME280;8410;52.532;13.336;2022-09-12T03:46:56;101270.94;;;16.33;85.76
16595;BME280;8410;52.532;13.336;2022-09-12T03:49:24;101277.84;;;16.37;85.50
16595;BME280;8410;52.532;13.336;2022-09-12T03:51:52;101271.69;;;16.66;83.83
16595;BME280;8410;52.532;13.336;2022-09-12T03:54:21;101282.13;;;16.57;85.28
16595;BME280;8410;52.532;13.336;2022-09-12T03:56:49;101278.69;;;16.53;84.43
16595;BME280;8410;52.532;13.336;2022-09-12T03:59:17;101286.47;;;16.58;84.38
16595;BME280;8410;52.532;13.336;2022-09-12T04:01:44;101286.44;;;16.64;83.63
16595;BME280;8410;52.532;13.336;2022-09-12T04:04:12;101288.19;;;16.56;85.06
16595;BME280;8410;52.532;13.336;2022-09-12T04:06:40;101296.94;;;16.36;85.31
16595;BME280;8410;52.532;13.336;2022-09-12T04:09:08;101282.16;;;16.38;86.01
16595;BME280;8410;52.532;13.336;2022-09-12T04:11:38;101288.28;;;16.29;85.21
16595;BME280;8410;52.532;13.336;2022-09-12T04:14:05;101290.88;;;16.28;85.39
16595;BME280;8410;52.532;13.336;2022-09-12T04:16:33;101283.09;;;16.22;85.23
16595;BME280;8410;52.532;13.336;2022-09-12T04:19:01;101283.94;;;16.28;85.36
16595;BME280;8410;52.532;13.336;2022-09-12T04:21:29;101279.66;;;16.10;85.53
16595;BME280;8410;52.532;13.336;2022-09-12T04:23:57;101273.59;;;16.15;86.29
16595;BME280;8410;52.532;13.336;2022-09-12T04:26:25;101279.56;;;16.38;85.24
16595;BME280;8410;52.532;13.336;2022-09-12T04:28:57;101277.03;;;16.30;84.41
16595;BME280;8410;52.532;13.336;2022-09-12T04:31:25;101276.13;;;16.39;84.57
16595;BME280;8410;52.532;13.336;2022-09-12T04:33:54;101281.31;;;16.38;84.70
16595;BME280;8410;52.532;13.336;2022-09-12T04:36:26;101282.16;;;16.50;83.97
16595;BME280;8410;52.532;13.336;2022-09-12T04:38:55;101283.91;;;16.47;84.35
16595;BME280;8410;52.532;13.336;2022-09-12T04:41:25;101291.66;;;16.51;83.45
16595;BME280;8410;52.532;13.336;2022-09-12T04:43:57;101288.19;;;16.56;84.38
16595;BME280;8410;52.532;13.336;2022-09-12T04:46:29;101282.19;;;16.40;83.80
16595;BME280;8410;52.532;13.336;2022-09-12T04:48:57;101281.25;;;16.51;83.89
16595;BME280;8410;52.532;13.336;2022-09-12T04:51:27;101281.25;;;16.51;84.20
16595;BME280;8410;52.532;13.336;2022-09-12T04:53:59;101277.81;;;16.56;84.65
16595;BME280;8410;52.532;13.336;2022-09-12T04:56:29;101284.72;;;16.57;84.57
16595;BME280;8410;52.532;13.336;2022-09-12T04:59:00;101287.34;;;16.55;84.07
16595;BME280;8410;52.532;13.336;2022-09-12T05:01:28;101283.88;;;16.51;84.52
16595;BME280;8410;52.532;13.336;2022-09-12T05:03:58;101289.00;;;16.70;83.29
16595;BME280;8410;52.532;13.336;2022-09-12T05:06:29;101280.41;;;16.52;83.33
16595;BME280;8410;52.532;13.336;2022-09-12T05:08:58;101284.78;;;16.44;84.56
16595;BME280;8410;52.532;13.336;2022-09-12T05:11:30;101286.44;;;16.64;84.04
16595;BME280;8410;52.532;13.336;2022-09-12T05:14:19;101278.66;;;16.61;83.41
16595;BME280;8410;52.532;13.336;2022-09-12T05:16:47;101282.94;;;16.68;83.81
16595;BME280;8410;52.532;13.336;2022-09-12T05:19:16;101284.66;;;16.72;82.39
16595;BME280;8410;52.532;13.336;2022-09-12T05:21:44;101286.50;;;16.47;83.35
16595;BME280;8410;52.532;13.336;2022-09-12T05:24:11;101288.19;;;16.56;84.00
16595;BME280;8410;52.532;13.336;2022-09-12T05:26:39;101288.22;;;16.45;85.23
16595;BME280;8410;52.532;13.336;2022-09-12T05:29:07;101284.72;;;16.53;83.70
16595;BME280;8410;52.532;13.336;2022-09-12T05:31:36;101295.19;;;16.29;84.29
16595;BME280;8410;52.532;13.336;2022-09-12T05:34:04;101300.44;;;16.10;87.05
16595;BME280;8410;52.532;13.336;2022-09-12T05:36:32;101294.31;;;16.36;84.62
16595;BME280;8410;52.532;13.336;2022-09-12T05:39:00;101296.91;;;16.42;85.83
16595;BME280;8410;52.532;13.336;2022-09-12T05:41:31;101300.31;;;16.53;86.22
16595;BME280;8410;52.532;13.336;2022-09-12T05:44:02;101308.06;;;16.69;83.92
16595;BME280;8410;52.532;13.336;2022-09-12T05:46:37;101301.16;;;16.79;84.33
16595;BME280;8410;52.532;13.336;2022-09-12T05:49:09;101306.22;;;17.03;83.19
16595;BME280;8410;52.532;13.336;2022-09-12T05:51:40;101303.59;;;17.05;81.93
16595;BME280;8410;52.532;13.336;2022-09-12T05:54:12;101307.03;;;17.10;82.85
16595;BME280;8410;52.532;13.336;2022-09-12T05:56:42;101308.81;;;17.06;82.60
16595;BME280;8410;52.532;13.336;2022-09-12T05:59:13;101313.97;;;17.17;82.82
16595;BME280;8410;52.532;13.336;2022-09-12T06:01:43;101317.59;;;16.70;84.70
16595;BME280;8410;52.532;13.336;2022-09-12T06:04:11;101314.88;;;17.05;83.84
16595;BME280;8410;52.532;13.336;2022-09-12T06:06:41;101312.28;;;17.07;84.16
16595;BME280;8410;52.532;13.336;2022-09-12T06:09:12;101312.25;;;17.05;83.14
16595;BME280;8410;52.532;13.336;2022-09-12T06:11:41;101323.53;;;17.07;83.08
16595;BME280;8410;52.532;13.336;2022-09-12T06:14:11;101328.84;;;16.81;84.42
16595;BME280;8410;52.532;13.336;2022-09-12T06:16:39;101323.56;;;17.00;84.55
16595;BME280;8410;52.532;13.336;2022-09-12T06:19:17;101327.88;;;17.07;84.21
16595;BME280;8410;52.532;13.336;2022-09-12T06:21:46;101327.94;;;16.93;84.37
16595;BME280;8410;52.532;13.336;2022-09-12T06:24:15;101331.25;;;17.27;83.76
16595;BME280;8410;52.532;13.336;2022-09-12T06:26:44;101327.91;;;17.04;84.45
16595;BME280;8410;52.532;13.336;2022-09-12T06:29:13;101333.94;;;17.13;83.86
16595;BME280;8410;52.532;13.336;2022-09-12T06:31:43;101336.44;;;17.30;83.96
16595;BME280;8410;52.532;13.336;2022-09-12T06:34:14;101334.63;;;17.40;82.70
16595;BME280;8410;52.532;13.336;2022-09-12T06:36:46;101339.00;;;17.38;84.80
16595;BME280;8410;52.532;13.336;2022-09-12T06:39:16;101337.31;;;17.26;84.16
16595;BME280;8410;52.532;13.336;2022-09-12T06:41:46;101333.66;;;17.59;83.33
16595;BME280;8410;52.532;13.336;2022-09-12T06:44:16;101336.13;;;17.76;83.12
16595;BME280;8410;52.532;13.336;2022-09-12T06:46:45;101337.78;;;17.90;82.25
16595;BME280;8410;52.532;13.336;2022-09-12T06:49:14;101330.88;;;17.85;82.75
16595;BME280;8410;52.532;13.336;2022-09-12T06:51:43;101328.19;;;17.96;81.87
16595;BME280;8410;52.532;13.336;2022-09-12T06:54:12;101333.41;;;17.95;82.34
16595;BME280;8410;52.532;13.336;2022-09-12T06:56:41;101330.75;;;17.98;81.80
16595;BME280;8410;52.532;13.336;2022-09-12T06:59:09;101323.69;;;18.09;81.84
16595;BME280;8410;52.532;13.336;2022-09-12T07:01:38;101323.75;;;18.06;81.83
16595;BME280;8410;52.532;13.336;2022-09-12T07:04:06;101312.47;;;18.05;82.71
16595;BME280;8410;52.532;13.336;2022-09-12T07:06:38;101318.28;;;18.30;81.55
16595;BME280;8410;52.532;13.336;2022-09-12T07:09:10;101322.06;;;18.02;82.25
16595;BME280;8410;52.532;13.336;2022-09-12T07:11:41;101331.50;;;16.57;87.59
16595;BME280;8410;52.532;13.336;2022-09-12T07:14:11;101317.44;;;17.10;88.09
16595;BME280;8410;52.532;13.336;2022-09-12T07:16:40;101318.84;;;17.63;85.49
16595;BME280;8410;52.532;13.336;2022-09-12T07:19:09;101310.75;;;18.03;82.83
16595;BME280;8410;52.532;13.336;2022-09-12T07:21:40;101315.13;;;17.98;83.09
16595;BME280;8410;52.532;13.336;2022-09-12T07:24:08;101315.78;;;18.20;82.67
16595;BME280;8410;52.532;13.336;2022-09-12T07:26:38;101317.50;;;18.22;81.91
16595;BME280;8410;52.532;13.336;2022-09-12T07:29:13;101312.09;;;18.42;81.63
16595;BME280;8410;52.532;13.336;2022-09-12T07:32:03;101323.50;;;18.30;81.85
16595;BME280;8410;52.532;13.336;2022-09-12T07:34:32;101313.28;;;18.09;84.56
16595;BME280;8410;52.532;13.336;2022-09-12T07:37:02;101314.94;;;18.19;83.74
16595;BME280;8410;52.532;13.336;2022-09-12T07:39:30;101318.47;;;18.15;83.01
16595;BME280;8410;52.532;13.336;2022-09-12T07:41:58;101322.19;;;17.87;85.48
16595;BME280;8410;52.532;13.336;2022-09-12T07:44:26;101325.78;;;17.67;84.50
16595;BME280;8410;52.532;13.336;2022-09-12T07:46:55;101317.88;;;17.76;85.39
16595;BME280;8410;52.532;13.336;2022-09-12T07:49:22;101320.38;;;17.95;85.72
16595;BME280;8410;52.532;13.336;2022-09-12T07:51:50;101320.28;;;18.07;85.43
16595;BME280;8410;52.532;13.336;2022-09-12T07:54:20;101316.63;;;18.23;85.33
16595;BME280;8410;52.532;13.336;2022-09-12T07:56:48;101314.81;;;18.32;83.25
16595;BME280;8410;52.532;13.336;2022-09-12T07:59:16;101314.13;;;18.93;81.98
16595;BME280;8410;52.532;13.336;2022-09-12T08:02:04;101315.56;;;19.15;81.22
16595;BME280;8410;52.532;13.336;2022-09-12T08:04:32;101316.59;;;19.63;81.16
16595;BME280;8410;52.532;13.336;2022-09-12T08:07:02;101318.06;;;19.82;82.11
16595;BME280;8410;52.532;13.336;2022-09-12T08:09:31;101329.09;;;19.42;81.22
16595;BME280;8410;52.532;13.336;2022-09-12T08:11:59;101320.25;;;19.51;78.53
16595;BME280;8410;52.532;13.336;2022-09-12T08:14:27;101323.03;;;19.97;80.16
16595;BME280;8410;52.532;13.336;2022-09-12T08:16:55;101322.38;;;20.34;79.56
16595;BME280;8410;52.532;13.336;2022-09-12T08:19:23;101330.66;;;19.54;77.26
16595;BME280;8410;52.532;13.336;2022-09-12T08:21:50;101331.53;;;18.91;80.86
16595;BME280;8410;52.532;13.336;2022-09-12T08:24:18;101320.00;;;19.71;78.73
16595;BME280;8410;52.532;13.336;2022-09-12T08:26:47;101323.75;;;20.05;79.32
16595;BME280;8410;52.532;13.336;2022-09-12T08:29:15;101320.81;;;20.24;77.42
16595;BME280;8410;52.532;13.336;2022-09-12T08:31:43;101322.00;;;20.56;75.98
16595;BME280;8410;52.532;13.336;2022-09-12T08:34:12;101320.50;;;20.39;76.42
16595;BME280;8410;52.532;13.336;2022-09-12T08:36:42;101319.59;;;20.42;72.87
16595;BME280;8410;52.532;13.336;2022-09-12T08:39:11;101319.78;;;19.83;75.77
16595;BME280;8410;52.532;13.336;2022-09-12T08:41:43;101316.25;;;20.34;76.16
16595;BME280;8410;52.532;13.336;2022-09-12T08:44:29;101317.63;;;20.56;72.61
16595;BME280;8410;52.532;13.336;2022-09-12T08:47:20;101321.94;;;20.59;73.07
16595;BME280;8410;52.532;13.336;2022-09-12T08:50:08;101317.16;;;20.33;74.05
16595;BME280;8410;52.532;13.336;2022-09-12T08:52:46;101313.00;;;20.22;73.29
16595;BME280;8410;52.532;13.336;2022-09-12T08:55:31;101316.56;;;20.65;69.79
16595;BME280;8410;52.532;13.336;2022-09-12T08:58:05;101318.78;;;19.90;71.61
16595;BME280;8410;52.532;13.336;2022-09-12T09:00:49;101314.88;;;19.61;71.09
16595;BME280;8410;52.532;13.336;2022-09-12T09:03:47;101322.28;;;19.32;72.22
16595;BME280;8410;52.532;13.336;2022-09-12T09:06:43;101310.69;;;20.05;70.19
16595;BME280;8410;52.532;13.336;2022-09-12T09:09:28;101307.59;;;20.32;69.35
16595;BME280;8410;52.532;13.336;2022-09-12T09:12:11;101310.72;;;20.51;68.98
16595;BME280;8410;52.532;13.336;2022-09-12T09:14:58;101308.91;;;19.53;70.54
16595;BME280;8410;52.532;13.336;2022-09-12T09:17:36;101311.28;;;20.20;68.26
16595;BME280;8410;52.532;13.336;2022-09-12T09:20:21;101302.13;;;19.97;69.91
16595;BME280;8410;52.532;13.336;2022-09-12T09:22:55;101304.19;;;19.78;69.83
16595;BME280;8410;52.532;13.336;2022-09-12T09:25:38;101298.06;;;20.29;67.80
16595;BME280;8410;52.532;13.336;2022-09-12T09:28:15;101307.00;;;19.66;69.57
16595;BME280;8410;52.532;13.336;2022-09-12T09:30:43;101299.81;;;19.79;70.90
16595;BME280;8410;52.532;13.336;2022-09-12T09:33:21;101297.16;;;19.82;69.58
16595;BME280;8410;52.532;13.336;2022-09-12T09:35:59;101299.78;;;20.30;68.00
16595;BME280;8410;52.532;13.336;2022-09-12T09:38:47;101304.94;;;20.33;66.78
16595;BME280;8410;52.532;13.336;2022-09-12T09:41:40;101300.28;;;20.02;67.91
16595;BME280;8410;52.532;13.336;2022-09-12T09:44:12;101294.41;;;20.36;67.74
16595;BME280;8410;52.532;13.336;2022-09-12T09:46:40;101299.13;;;20.19;66.96
16595;BME280;8410;52.532;13.336;2022-09-12T09:49:13;101291.56;;;20.48;67.07
16595;BME280;8410;52.532;13.336;2022-09-12T09:51:42;101296.28;;;20.76;65.46
16595;BME280;8410;52.532;13.336;2022-09-12T09:54:19;101294.16;;;20.93;64.43
16595;BME280;8410;52.532;13.336;2022-09-12T09:56:48;101292.00;;;20.25;66.29
16595;BME280;8410;52.532;13.336;2022-09-12T09:59:25;101287.41;;;21.22;65.06
16595;BME280;8410;52.532;13.336;2022-09-12T10:01:55;101287.63;;;20.73;65.79
16595;BME280;8410;52.532;13.336;2022-09-12T10:04:32;101285.06;;;21.10;64.07
16595;BME280;8410;52.532;13.336;2022-09-12T10:07:19;101283.19;;;20.31;62.87
16595;BME280;8410;52.532;13.336;2022-09-12T10:10:05;101288.03;;;20.04;63.10
16595;BME280;8410;52.532;13.336;2022-09-12T10:12:33;101281.78;;;20.60;61.35
16595;BME280;8410;52.532;13.336;2022-09-12T10:15:15;101281.53;;;20.72;61.40
16595;BME280;8410;52.532;13.336;2022-09-12T10:17:46;101282.06;;;19.99;62.99
16595;BME280;8410;52.532;13.336;2022-09-12T10:20:35;101284.94;;;20.77;62.34
16595;BME280;8410;52.532;13.336;2022-09-12T10:23:26;101276.72;;;20.51;62.34
16595;BME280;8410;52.532;13.336;2022-09-12T10:26:00;101275.97;;;20.87;61.77
16595;BME280;8410;52.532;13.336;2022-09-12T10:28:34;101281.53;;;21.12;61.08
16595;BME280;8410;52.532;13.336;2022-09-12T10:31:07;101274.38;;;21.19;61.50
16595;BME280;8410;52.532;13.336;2022-09-12T10:33:43;101274.03;;;21.34;60.70
16595;BME280;8410;52.532;13.336;2022-09-12T10:36:15;101265.53;;;21.62;59.85
16595;BME280;8410;52.532;13.336;2022-09-12T10:38:49;101253.53;;;21.88;60.20
16595;BME280;8410;52.532;13.336;2022-09-12T10:41:18;101269.84;;;20.88;62.12
16595;BME280;8410;52.532;13.336;2022-09-12T10:43:48;101272.31;;;20.95;62.17
16595;BME280;8410;52.532;13.336;2022-09-12T10:46:27;101268.28;;;20.36;62.77
16595;BME280;8410;52.532;13.336;2022-09-12T10:49:13;101262.84;;;21.28;60.46
16595;BME280;8410;52.532;13.336;2022-09-12T10:51:46;101259.94;;;21.42;60.98
16595;BME280;8410;52.532;13.336;2022-09-12T10:54:17;101264.59;;;21.27;60.51
16595;BME280;8410;52.532;13.336;2022-09-12T10:57:20;101257.97;;;21.50;59.59
16595;BME280;8410;52.532;13.336;2022-09-12T11:00:06;101251.72;;;22.22;57.71
16595;BME280;8410;52.532;13.336;2022-09-12T11:03:01;101253.28;;;22.30;57.27
16595;BME280;8410;52.532;13.336;2022-09-12T11:05:52;101254.81;;;22.37;56.87
16595;BME280;8410;52.532;13.336;2022-09-12T11:08:52;101246.41;;;22.26;57.13
16595;BME280;8410;52.532;13.336;2022-09-12T11:11:45;101254.91;;;21.68;57.93
16595;BME280;8410;52.532;13.336;2022-09-12T11:14:33;101264.59;;;21.27;59.16
16595;BME280;8410;52.532;13.336;2022-09-12T11:17:18;101253.06;;;20.99;60.75
16595;BME280;8410;52.532;13.336;2022-09-12T11:20:18;101259.50;;;21.21;59.90
16595;BME280;8410;52.532;13.336;2022-09-12T11:23:24;101251.53;;;21.63;59.61
16595;BME280;8410;52.532;13.336;2022-09-12T11:26:06;101253.97;;;22.03;58.71
16595;BME280;8410;52.532;13.336;2022-09-12T11:28:49;101247.38;;;21.89;58.79
16595;BME280;8410;52.532;13.336;2022-09-12T11:31:51;101249.66;;;22.34;58.13
16595;BME280;8410;52.532;13.336;2022-09-12T11:34:32;101249.31;;;22.46;58.60
16595;BME280;8410;52.532;13.336;2022-09-12T11:37:33;101248.44;;;22.14;58.71
16595;BME280;8410;52.532;13.336;2022-09-12T11:40:25;101243.69;;;21.96;58.53
16595;BME280;8410;52.532;13.336;2022-09-12T11:43:02;101237.44;;;21.67;58.64
16595;BME280;8410;52.532;13.336;2022-09-12T11:45:39;101236.88;;;21.56;58.37
16595;BME280;8410;52.532;13.336;2022-09-12T11:48:18;101233.03;;;21.33;59.63
16595;BME280;8410;52.532;13.336;2022-09-12T11:50:50;101234.25;;;21.19;60.65
16595;BME280;8410;52.532;13.336;2022-09-12T11:53:23;101226.84;;;21.72;58.95
16595;BME280;8410;52.532;13.336;2022-09-12T11:55:57;101229.66;;;21.28;60.12
16595;BME280;8410;52.532;13.336;2022-09-12T11:58:28;101236.94;;;21.15;60.31
16595;BME280;8410;52.532;13.336;2022-09-12T12:01:07;101229.75;;;20.86;61.41
16595;BME280;8410;52.532;13.336;2022-09-12T12:03:42;101228.34;;;21.09;60.67
16595;BME280;8410;52.532;13.336;2022-09-12T12:06:15;101219.84;;;21.72;59.97
16595;BME280;8410;52.532;13.336;2022-09-12T12:08:46;101206.72;;;22.05;58.83
16595;BME280;8410;52.532;13.336;2022-09-12T12:11:29;101216.81;;;21.88;59.15
16595;BME280;8410;52.532;13.336;2022-09-12T12:14:03;101210.84;;;21.48;59.91
16595;BME280;8410;52.532;13.336;2022-09-12T12:16:36;101205.91;;;21.36;59.32
16595;BME280;8410;52.532;13.336;2022-09-12T12:19:20;101204.59;;;21.54;58.52
16595;BME280;8410;52.532;13.336;2022-09-12T12:21:51;101204.13;;;21.72;57.45
16595;BME280;8410;52.532;13.336;2022-09-12T12:24:22;101197.34;;;21.96;56.69
16595;BME280;8410;52.532;13.336;2022-09-12T12:26:59;101192.34;;;22.21;56.68
16595;BME280;8410;52.532;13.336;2022-09-12T12:29:40;101189.63;;;22.54;55.89
16595;BME280;8410;52.532;13.336;2022-09-12T12:32:24;101195.22;;;22.42;55.88
16595;BME280;8410;52.532;13.336;2022-09-12T12:38:27;101191.34;;;21.93;56.63
16595;BME280;8410;52.532;13.336;2022-09-12T12:41:43;101199.13;;;21.63;58.00
16595;BME280;8410;52.532;13.336;2022-09-12T12:44:49;101201.75;;;21.27;58.78
16595;BME280;8410;52.532;13.336;2022-09-12T12:47:20;101194.28;;;22.13;57.23
16595;BME280;8410;52.532;13.336;2022-09-12T12:49:52;101199.06;;;21.66;57.59
16595;BME280;8410;52.532;13.336;2022-09-12T12:52:24;101202.81;;;21.56;58.03
16595;BME280;8410;52.532;13.336;2022-09-12T12:54:59;101192.06;;;22.31;56.61
16595;BME280;8410;52.532;13.336;2022-09-12T12:57:44;101196.81;;;21.84;57.47
16595;BME280;8410;52.532;13.336;2022-09-12T13:00:31;101196.47;;;22.58;56.04
16595;BME280;8410;52.532;13.336;2022-09-12T13:03:09;101187.00;;;22.54;55.72
16595;BME280;8410;52.532;13.336;2022-09-12T13:05:48;101194.00;;;22.54;56.31
16595;BME280;8410;52.532;13.336;2022-09-12T13:08:29;101188.47;;;22.63;55.90
16595;BME280;8410;52.532;13.336;2022-09-12T13:11:07;101183.97;;;22.66;56.31
16595;BME280;8410;52.532;13.336;2022-09-12T13:13:40;101177.97;;;22.63;56.74
16595;BME280;8410;52.532;13.336;2022-09-12T13:16:28;101181.63;;;22.57;56.12
16595;BME280;8410;52.532;13.336;2022-09-12T13:19:03;101172.94;;;22.55;55.94
16595;BME280;8410;52.532;13.336;2022-09-12T13:21:31;101181.28;;;22.40;56.15
16595;BME280;8410;52.532;13.336;2022-09-12T13:24:02;101178.03;;;22.61;55.39
16595;BME280;8410;52.532;13.336;2022-09-12T13:26:39;101167.97;;;22.76;55.17
16595;BME280;8410;52.532;13.336;2022-09-12T13:29:10;101169.16;;;21.73;57.41
16595;BME280;8410;52.532;13.336;2022-09-12T13:31:40;101163.06;;;22.04;56.75
16595;BME280;8410;52.532;13.336;2022-09-12T13:34:18;101170.63;;;21.84;57.46